createdAt,value
2017-06-26T00:00:13.100Z,2.33
2017-06-26T00:02:39.752Z,1.97
2017-06-26T00:05:06.390Z,2.57
2017-06-26T00:07:33.045Z,2.77
2017-06-26T00:09:59.672Z,2.73
2017-06-26T00:12:26.290Z,2.73
2017-06-26T00:14:52.939Z,3.53
2017-06-26T00:17:19.587Z,3.83
2017-06-26T00:19:46.216Z,3.23
2017-06-26T00:22:12.858Z,3.80
2017-06-26T00:24:39.814Z,3.37
2017-06-26T00:27:06.459Z,3.20
2017-06-26T00:29:33.082Z,3.50
2017-06-26T00:31:59.714Z,4.10
2017-06-26T00:34:26.364Z,3.67
2017-06-26T00:36:52.985Z,2.80
2017-06-26T00:39:19.628Z,3.80
2017-06-26T00:41:46.270Z,3.90
2017-06-26T00:44:12.890Z,3.57
2017-06-26T00:46:39.553Z,3.17
2017-06-26T00:49:06.174Z,3.40
2017-06-26T00:51:32.822Z,4.47
2017-06-26T00:53:59.451Z,4.00
2017-06-26T00:56:26.067Z,4.30
2017-06-26T00:58:52.691Z,4.07
2017-06-26T01:01:19.299Z,3.80
2017-06-26T01:03:45.948Z,3.70
2017-06-26T01:06:12.575Z,4.27
2017-06-26T01:08:39.210Z,3.23
2017-06-26T01:11:05.852Z,4.10
2017-06-26T01:13:32.467Z,4.90
2017-06-26T01:15:59.192Z,4.77
2017-06-26T01:18:25.834Z,5.50
2017-06-26T01:20:52.476Z,4.77
2017-06-26T01:23:19.113Z,4.47
2017-06-26T01:25:45.754Z,4.60
2017-06-26T01:28:12.370Z,3.80
2017-06-26T01:30:38.996Z,4.47
2017-06-26T01:33:05.633Z,3.80
2017-06-26T01:35:32.250Z,5.13
2017-06-26T01:37:58.880Z,4.47
2017-06-26T01:40:25.496Z,3.50
2017-06-26T01:42:52.130Z,3.50
2017-06-26T01:45:18.760Z,3.67
2017-06-26T01:47:45.386Z,3.40
2017-06-26T01:50:12.034Z,3.80
2017-06-26T01:52:38.647Z,3.80
2017-06-26T01:55:05.288Z,3.70
2017-06-26T01:57:31.904Z,3.53
2017-06-26T01:59:58.539Z,3.60
2017-06-26T02:02:25.172Z,3.80
2017-06-26T02:04:51.808Z,3.67
2017-06-26T02:07:18.447Z,3.97
2017-06-26T02:09:45.060Z,3.40
2017-06-26T02:12:11.716Z,3.23
2017-06-26T02:14:38.346Z,3.73
2017-06-26T02:17:04.988Z,3.50
2017-06-26T02:19:31.605Z,4.53
2017-06-26T02:21:58.246Z,4.17
2017-06-26T02:24:24.884Z,4.37
2017-06-26T02:26:51.502Z,4.10
2017-06-26T02:29:18.144Z,3.20
2017-06-26T02:31:44.771Z,4.00
2017-06-26T02:34:11.401Z,4.07
2017-06-26T02:36:38.038Z,4.87
2017-06-26T02:39:04.666Z,3.67
2017-06-26T02:41:31.294Z,4.57
2017-06-26T02:43:57.912Z,3.93
2017-06-26T02:46:24.533Z,4.50
2017-06-26T02:48:51.192Z,3.70
2017-06-26T02:51:17.805Z,3.60
2017-06-26T02:53:44.569Z,4.97
2017-06-26T02:56:11.212Z,5.10
2017-06-26T02:58:37.839Z,4.30
2017-06-26T03:01:04.451Z,3.90
2017-06-26T03:03:31.099Z,4.73
2017-06-26T03:05:57.758Z,4.20
2017-06-26T03:08:24.408Z,5.37
2017-06-26T03:10:51.022Z,5.53
2017-06-26T03:13:17.697Z,6.63
2017-06-26T03:15:44.331Z,4.70
2017-06-26T03:18:10.954Z,5.63
2017-06-26T03:20:37.590Z,6.20
2017-06-26T03:23:04.690Z,5.10
2017-06-26T03:25:31.319Z,5.83
2017-06-26T03:27:57.964Z,5.90
2017-06-26T03:30:24.587Z,7.07
2017-06-26T03:32:51.230Z,6.97
2017-06-26T03:35:17.847Z,7.37
2017-06-26T03:37:44.489Z,7.37
2017-06-26T03:40:11.124Z,7.27
2017-06-26T03:42:37.753Z,5.90
2017-06-26T03:45:04.401Z,6.40
2017-06-26T03:47:31.039Z,6.57
2017-06-26T03:49:57.663Z,6.33
2017-06-26T03:52:24.280Z,6.63
2017-06-26T03:54:51.227Z,6.43
2017-06-26T03:57:18.407Z,6.10
2017-06-26T03:59:45.041Z,6.60
2017-06-26T04:02:11.656Z,6.63
2017-06-26T04:04:38.299Z,6.57
2017-06-26T04:07:04.920Z,6.47
2017-06-26T04:09:31.590Z,6.47
2017-06-26T04:11:58.219Z,6.60
2017-06-26T04:14:24.859Z,6.97
2017-06-26T04:16:51.496Z,5.93
2017-06-26T04:19:18.126Z,5.87
2017-06-26T04:21:44.783Z,6.50
2017-06-26T04:24:11.431Z,7.17
2017-06-26T04:26:38.044Z,7.67
2017-06-26T04:29:04.700Z,7.03
2017-06-26T04:31:31.313Z,7.10
2017-06-26T04:33:57.961Z,8.10
2017-06-26T04:36:24.577Z,7.10
2017-06-26T04:38:51.196Z,8.00
2017-06-26T04:41:17.825Z,8.50
2017-06-26T04:43:44.462Z,8.30
2017-06-26T04:46:11.109Z,6.57
2017-06-26T04:48:37.751Z,8.17
2017-06-26T04:51:04.428Z,7.80
2017-06-26T04:53:31.048Z,7.80
2017-06-26T04:55:57.682Z,8.20
2017-06-26T04:58:24.338Z,8.97
2017-06-26T05:00:51.135Z,8.13
2017-06-26T05:03:17.771Z,7.97
2017-06-26T05:05:44.436Z,8.97
2017-06-26T05:08:11.063Z,8.83
2017-06-26T05:10:37.719Z,8.63
2017-06-26T05:13:04.342Z,8.13
2017-06-26T05:15:30.962Z,8.83
2017-06-26T05:17:57.598Z,9.10
2017-06-26T05:20:24.223Z,8.20
2017-06-26T05:22:50.872Z,8.53
2017-06-26T05:25:17.504Z,10.30
2017-06-26T05:27:44.159Z,9.37
2017-06-26T05:30:10.774Z,9.97
2017-06-26T05:32:37.411Z,9.80
2017-06-26T05:35:06.072Z,10.90
2017-06-26T05:37:32.694Z,9.37
2017-06-26T05:40:01.684Z,10.10
2017-06-26T05:42:30.702Z,10.80
2017-06-26T05:45:00.266Z,10.77
2017-06-26T05:47:29.188Z,9.40
2017-06-26T05:49:59.490Z,11.37
2017-06-26T05:52:29.536Z,10.60
2017-06-26T05:54:58.332Z,9.80
2017-06-26T05:57:24.981Z,11.30
2017-06-26T05:59:56.133Z,10.63
2017-06-26T06:02:23.570Z,9.90
2017-06-26T06:04:54.934Z,11.67
2017-06-26T06:07:23.424Z,9.87
2017-06-26T06:09:50.071Z,11.17
2017-06-26T06:12:20.283Z,12.00
2017-06-26T06:14:47.582Z,12.90
2017-06-26T06:17:15.835Z,11.37
2017-06-26T06:19:44.949Z,12.47
2017-06-26T06:22:14.147Z,10.90
2017-06-26T06:24:44.057Z,13.27
2017-06-26T06:27:12.240Z,11.83
2017-06-26T06:29:41.123Z,12.70
2017-06-26T06:32:09.166Z,13.13
2017-06-26T06:34:38.776Z,13.20
2017-06-26T06:37:06.711Z,13.57
2017-06-26T06:39:36.819Z,13.80
2017-06-26T06:42:04.587Z,15.33
2017-06-26T06:44:34.275Z,15.30
2017-06-26T06:47:00.941Z,17.50
2017-06-26T06:49:27.568Z,17.70
2017-06-26T06:51:54.238Z,18.27
2017-06-26T06:54:20.867Z,16.40
2017-06-26T06:56:47.496Z,20.40
2017-06-26T06:59:14.148Z,19.00
2017-06-26T07:01:40.792Z,21.80
2017-06-26T07:04:07.451Z,19.13
2017-06-26T07:06:34.091Z,22.27
2017-06-26T07:09:00.785Z,21.90
2017-06-26T07:11:27.423Z,22.00
2017-06-26T07:13:54.050Z,19.37
2017-06-26T07:16:20.722Z,20.17
2017-06-26T07:18:47.386Z,19.73
2017-06-26T07:21:14.030Z,19.93
2017-06-26T07:23:40.653Z,20.10
2017-06-26T07:26:07.303Z,17.00
2017-06-26T07:28:33.922Z,19.03
2017-06-26T07:31:00.566Z,16.23
2017-06-26T07:33:27.211Z,18.53
2017-06-26T07:35:53.851Z,17.10
2017-06-26T07:38:20.505Z,16.97
2017-06-26T07:40:47.131Z,17.07
2017-06-26T07:43:14.133Z,16.10
2017-06-26T07:45:40.774Z,16.93
2017-06-26T07:48:07.411Z,16.57
2017-06-26T07:50:34.043Z,20.10
2017-06-26T07:53:00.711Z,16.20
2017-06-26T07:55:27.352Z,14.00
2017-06-26T07:57:53.999Z,14.97
2017-06-26T08:00:20.616Z,17.77
2017-06-26T08:02:47.260Z,16.50
2017-06-26T08:05:13.919Z,19.90
2017-06-26T08:07:40.560Z,12.23
2017-06-26T08:10:07.206Z,14.90
2017-06-26T08:12:37.247Z,14.87
2017-06-26T08:15:03.868Z,18.20
2017-06-26T08:17:31.542Z,15.90
2017-06-26T08:19:58.167Z,22.47
2017-06-26T08:22:25.142Z,9.20
2017-06-26T08:24:51.766Z,9.00
2017-06-26T08:27:21.161Z,6.03
2017-06-26T08:29:49.027Z,5.47
2017-06-26T08:32:17.856Z,6.30
2017-06-26T08:34:47.610Z,6.90
2017-06-26T08:37:20.088Z,7.17
2017-06-26T08:39:48.770Z,3.47
2017-06-26T08:42:16.774Z,4.10
2017-06-26T08:44:48.146Z,3.40
2017-06-26T08:47:15.558Z,4.10
2017-06-26T08:49:47.355Z,3.67
2017-06-26T08:52:16.669Z,3.23
2017-06-26T08:54:44.108Z,4.37
2017-06-26T08:57:10.768Z,4.13
2017-06-26T08:59:39.990Z,4.30
2017-06-26T09:02:08.864Z,3.30
2017-06-26T09:04:37.019Z,4.33
2017-06-26T09:07:04.251Z,6.20
2017-06-26T09:09:30.899Z,4.80
2017-06-26T09:12:00.772Z,4.30
2017-06-26T09:14:28.792Z,5.20
2017-06-26T09:16:58.175Z,5.10
2017-06-26T09:19:27.872Z,4.63
2017-06-26T09:21:57.168Z,4.90
2017-06-26T09:24:27.525Z,3.70
2017-06-26T09:26:56.211Z,3.30
2017-06-26T09:29:24.890Z,4.00
2017-06-26T09:31:52.158Z,4.07
2017-06-26T09:34:20.573Z,6.00
2017-06-26T09:36:49.313Z,11.67
2017-06-26T09:39:17.268Z,3.70
2017-06-26T09:41:43.905Z,1.97
2017-06-26T09:44:10.556Z,2.00
2017-06-26T09:46:37.942Z,2.70
2017-06-26T09:49:07.447Z,2.07
2017-06-26T09:51:35.855Z,2.93
2017-06-26T09:54:05.519Z,2.30
2017-06-26T09:56:34.928Z,2.90
2017-06-26T09:59:03.507Z,3.73
2017-06-26T10:01:32.386Z,4.43
2017-06-26T10:04:00.936Z,3.17
2017-06-26T10:06:27.613Z,3.97
2017-06-26T10:08:57.132Z,3.87
2017-06-26T10:11:25.020Z,5.10
2017-06-26T10:13:53.267Z,3.00
2017-06-26T10:16:22.451Z,4.20
2017-06-26T10:18:49.065Z,2.67
2017-06-26T10:21:15.756Z,4.00
2017-06-26T10:23:43.307Z,3.87
2017-06-26T10:26:09.928Z,4.90
2017-06-26T10:28:37.325Z,3.90
2017-06-26T10:31:03.956Z,5.30
2017-06-26T10:33:30.617Z,3.83
2017-06-26T10:35:57.251Z,5.00
2017-06-26T10:38:23.881Z,4.00
2017-06-26T10:40:52.707Z,7.50
2017-06-26T10:43:21.190Z,3.80
2017-06-26T10:45:47.830Z,4.80
2017-06-26T10:48:15.424Z,4.80
2017-06-26T10:50:42.085Z,4.50
2017-06-26T10:53:10.776Z,8.27
2017-06-26T10:55:38.404Z,4.80
2017-06-26T10:58:05.027Z,3.40
2017-06-26T11:00:31.679Z,3.60
2017-06-26T11:02:58.290Z,3.30
2017-06-26T11:05:24.943Z,2.50
2017-06-26T11:07:54.151Z,4.97
2017-06-26T11:10:20.779Z,2.33
2017-06-26T11:12:47.414Z,1.63
2017-06-26T11:15:14.063Z,2.60
2017-06-26T11:17:40.686Z,3.10
2017-06-26T11:20:07.314Z,2.23
2017-06-26T11:22:35.040Z,2.43
2017-06-26T11:25:01.658Z,2.77
2017-06-26T11:27:28.341Z,5.40
2017-06-26T11:29:54.968Z,5.07
2017-06-26T11:32:21.614Z,3.00
2017-06-26T11:34:48.254Z,4.37
2017-06-26T11:37:14.860Z,2.93
2017-06-26T11:39:41.513Z,2.43
2017-06-26T11:42:08.156Z,2.13
2017-06-26T11:44:35.627Z,3.97
2017-06-26T11:47:02.253Z,3.60
2017-06-26T11:49:28.894Z,2.73
2017-06-26T11:51:55.524Z,4.40
2017-06-26T11:54:22.158Z,2.57
2017-06-26T11:56:48.808Z,1.93
2017-06-26T11:59:15.439Z,1.83
2017-06-26T12:01:42.120Z,1.20
2017-06-26T12:04:08.744Z,2.30
2017-06-26T12:06:35.622Z,2.30
2017-06-26T12:09:02.294Z,4.70
2017-06-26T12:11:29.178Z,4.93
2017-06-26T12:13:55.817Z,3.80
2017-06-26T12:16:22.459Z,3.10
2017-06-26T12:18:49.071Z,2.43
2017-06-26T12:21:15.703Z,2.80
2017-06-26T12:23:42.351Z,4.10
2017-06-26T12:26:08.974Z,5.37
2017-06-26T12:28:35.624Z,4.13
2017-06-26T12:31:03.433Z,4.30
2017-06-26T12:33:30.073Z,3.37
2017-06-26T12:36:00.564Z,3.80
2017-06-26T12:38:28.850Z,2.20
2017-06-26T12:40:57.319Z,1.97
2017-06-26T12:43:23.981Z,2.20
2017-06-26T12:45:50.617Z,3.27
2017-06-26T12:48:21.335Z,3.07
2017-06-26T12:50:50.257Z,5.40
2017-06-26T12:53:16.879Z,4.40
2017-06-26T12:55:47.288Z,5.33
2017-06-26T12:58:15.766Z,6.20
2017-06-26T13:00:42.399Z,6.53
2017-06-26T13:03:12.252Z,4.83
2017-06-26T13:05:38.908Z,4.13
2017-06-26T13:08:07.852Z,2.80
2017-06-26T13:10:38.359Z,2.30
2017-06-26T13:13:07.167Z,2.30
2017-06-26T13:15:36.665Z,2.40
2017-06-26T13:18:03.359Z,2.10
2017-06-26T13:20:29.982Z,3.50
2017-06-26T13:22:56.599Z,2.90
2017-06-26T13:25:23.277Z,2.27
2017-06-26T13:27:52.278Z,1.90
2017-06-26T13:30:20.998Z,3.10
2017-06-26T13:32:49.922Z,4.40
2017-06-26T13:35:18.509Z,3.73
2017-06-26T13:37:46.018Z,3.40
2017-06-26T13:40:12.628Z,2.93
2017-06-26T13:42:39.257Z,1.90
2017-06-26T13:45:05.875Z,3.40
2017-06-26T13:47:32.527Z,3.40
2017-06-26T13:49:59.183Z,3.57
2017-06-26T13:52:27.940Z,2.00
2017-06-26T13:54:55.826Z,3.43
2017-06-26T13:57:22.480Z,2.43
2017-06-26T13:59:52.246Z,2.03
2017-06-26T14:02:18.941Z,3.50
2017-06-26T14:04:49.069Z,4.60
2017-06-26T14:07:16.362Z,3.90
2017-06-26T14:09:46.847Z,2.60
2017-06-26T14:12:15.596Z,3.70
2017-06-26T14:14:45.062Z,3.23
2017-06-26T14:17:14.626Z,4.60
2017-06-26T14:19:43.860Z,2.50
2017-06-26T14:22:13.650Z,2.43
2017-06-26T14:24:42.992Z,2.83
2017-06-26T14:27:11.703Z,3.30
2017-06-26T14:29:40.508Z,4.43
2017-06-26T14:32:11.231Z,6.37
2017-06-26T14:34:39.135Z,4.00
2017-06-26T14:37:07.146Z,4.73
2017-06-26T14:39:35.635Z,6.60
2017-06-26T14:42:04.832Z,3.03
2017-06-26T14:44:33.824Z,3.13
2017-06-26T14:47:03.730Z,5.00
2017-06-26T14:49:31.608Z,5.00
2017-06-26T14:52:00.827Z,2.57
2017-06-26T14:54:29.623Z,2.57
2017-06-26T14:57:00.478Z,5.00
2017-06-26T14:59:27.115Z,4.07
2017-06-26T15:01:56.917Z,3.73
2017-06-26T15:04:25.987Z,3.30
2017-06-26T15:06:53.220Z,2.20
2017-06-26T15:09:21.938Z,2.03
2017-06-26T15:11:49.349Z,1.80
2017-06-26T15:14:18.147Z,1.73
2017-06-26T15:16:44.847Z,1.87
2017-06-26T15:19:15.371Z,1.70
2017-06-26T15:21:45.127Z,1.60
2017-06-26T15:24:14.106Z,2.93
2017-06-26T15:26:41.446Z,2.80
2017-06-26T15:29:08.891Z,2.40
2017-06-26T15:31:38.425Z,3.00
2017-06-26T15:34:07.016Z,2.70
2017-06-26T15:36:35.375Z,3.33
2017-06-26T15:39:03.773Z,7.40
2017-06-26T15:41:33.647Z,3.20
2017-06-26T15:44:02.582Z,2.50
2017-06-26T15:46:32.943Z,3.00
2017-06-26T15:49:01.843Z,3.30
2017-06-26T15:51:29.595Z,2.30
2017-06-26T15:53:56.949Z,3.20
2017-06-26T15:56:23.608Z,3.77
2017-06-26T15:58:50.256Z,3.13
2017-06-26T16:01:17.574Z,2.13
2017-06-26T16:03:44.274Z,1.50
2017-06-26T16:06:10.934Z,2.30
2017-06-26T16:08:37.625Z,1.57
2017-06-26T16:11:05.355Z,1.60
2017-06-26T16:13:34.230Z,2.10
2017-06-26T16:16:00.887Z,1.70
2017-06-26T16:18:27.500Z,1.43
2017-06-26T16:20:54.144Z,3.33
2017-06-26T16:23:20.787Z,4.10
2017-06-26T16:25:47.418Z,3.17
2017-06-26T16:28:14.070Z,2.87
2017-06-26T16:30:40.692Z,2.07
2017-06-26T16:33:07.325Z,2.23
2017-06-26T16:35:33.947Z,1.90
2017-06-26T16:38:00.587Z,2.43
2017-06-26T16:40:27.217Z,1.33
2017-06-26T16:42:53.838Z,1.83
2017-06-26T16:45:20.493Z,2.00
2017-06-26T16:47:47.140Z,1.60
2017-06-26T16:50:13.775Z,2.27
2017-06-26T16:52:40.423Z,2.23
2017-06-26T16:55:07.049Z,1.87
2017-06-26T16:57:33.674Z,1.60
2017-06-26T17:00:00.292Z,3.00
2017-06-26T17:02:26.929Z,1.47
2017-06-26T17:04:53.547Z,2.10
2017-06-26T17:07:20.154Z,1.90
2017-06-26T17:09:46.784Z,1.83
2017-06-26T17:12:13.409Z,1.30
2017-06-26T17:14:40.070Z,1.40
2017-06-26T17:17:06.704Z,1.63
2017-06-26T17:19:33.312Z,1.90
2017-06-26T17:21:59.976Z,2.00
2017-06-26T17:24:26.588Z,1.37
2017-06-26T17:26:53.239Z,2.00
2017-06-26T17:29:19.866Z,1.77
2017-06-26T17:31:46.512Z,2.20
2017-06-26T17:34:13.162Z,2.60
2017-06-26T17:36:39.779Z,1.27
2017-06-26T17:39:06.428Z,2.13
2017-06-26T17:41:33.051Z,1.50
2017-06-26T17:43:59.667Z,1.23
2017-06-26T17:46:26.314Z,1.20
2017-06-26T17:48:52.934Z,1.80
2017-06-26T17:51:19.590Z,2.23
2017-06-26T17:53:46.216Z,2.00
2017-06-26T17:56:12.835Z,1.93
2017-06-26T17:58:39.468Z,2.30
2017-06-26T18:01:06.394Z,2.40
2017-06-26T18:03:33.023Z,1.27
2017-06-26T18:05:59.684Z,1.63
2017-06-26T18:08:26.306Z,2.60
2017-06-26T18:10:52.954Z,1.70
2017-06-26T18:13:19.620Z,1.67
2017-06-26T18:15:46.235Z,1.97
2017-06-26T18:18:12.868Z,1.87
2017-06-26T18:20:39.527Z,2.17
2017-06-26T18:23:06.137Z,1.77
2017-06-26T18:25:32.787Z,2.23
2017-06-26T18:27:59.395Z,1.57
2017-06-26T18:30:26.023Z,1.60
2017-06-26T18:32:53.418Z,2.07
2017-06-26T18:35:20.058Z,1.70
2017-06-26T18:37:46.927Z,1.97
2017-06-26T18:40:13.580Z,1.87
2017-06-26T18:42:40.231Z,1.60
2017-06-26T18:45:06.865Z,1.27
2017-06-26T18:47:33.478Z,2.03
2017-06-26T18:50:00.117Z,2.27
2017-06-26T18:52:26.768Z,1.87
2017-06-26T18:54:53.409Z,2.03
2017-06-26T18:57:20.025Z,1.13
2017-06-26T18:59:46.649Z,1.30
2017-06-26T19:02:13.302Z,2.27
2017-06-26T19:04:45.449Z,2.10
2017-06-26T19:07:14.275Z,1.90
2017-06-26T19:09:43.785Z,1.47
2017-06-26T19:12:13.097Z,1.43
2017-06-26T19:14:42.417Z,1.37
2017-06-26T19:17:10.376Z,2.07
2017-06-26T19:19:39.286Z,1.47
2017-06-26T19:22:10.876Z,1.73
2017-06-26T19:24:38.807Z,2.20
2017-06-26T19:27:07.802Z,2.90
2017-06-26T19:29:35.782Z,1.80
2017-06-26T19:32:05.827Z,2.50
2017-06-26T19:34:34.610Z,2.20
2017-06-26T19:37:04.787Z,2.50
2017-06-26T19:39:33.263Z,2.10
2017-06-26T19:42:03.139Z,2.30
2017-06-26T19:44:33.724Z,2.13
2017-06-26T19:47:02.218Z,2.70
2017-06-26T19:49:31.798Z,2.07
2017-06-26T19:52:00.490Z,2.20
2017-06-26T19:54:28.371Z,2.70
2017-06-26T19:56:56.339Z,2.93
2017-06-26T19:59:25.120Z,2.20
2017-06-26T20:01:52.451Z,2.47
2017-06-26T20:04:21.119Z,2.20
2017-06-26T20:06:50.227Z,2.30
2017-06-26T20:09:19.142Z,1.63
2017-06-26T20:11:48.615Z,1.87
2017-06-26T20:14:15.860Z,2.10
2017-06-26T20:16:42.530Z,2.03
2017-06-26T20:19:09.162Z,1.50
2017-06-26T20:21:35.796Z,1.67
2017-06-26T20:24:02.445Z,1.90
2017-06-26T20:26:29.084Z,1.73
2017-06-26T20:28:55.855Z,1.80
2017-06-26T20:31:22.477Z,1.40
2017-06-26T20:33:49.105Z,1.43
2017-06-26T20:36:15.750Z,1.37
2017-06-26T20:38:42.386Z,1.80
2017-06-26T20:41:09.023Z,1.60
2017-06-26T20:43:35.660Z,1.90
2017-06-26T20:46:03.132Z,1.63
2017-06-26T20:48:29.771Z,1.67
2017-06-26T20:50:56.428Z,2.10
2017-06-26T20:53:23.072Z,1.87
2017-06-26T20:55:49.719Z,1.83
2017-06-26T20:58:16.328Z,2.57
2017-06-26T21:00:42.963Z,2.47
2017-06-26T21:03:09.590Z,1.80
2017-06-26T21:05:36.272Z,2.20
2017-06-26T21:08:02.889Z,1.97
2017-06-26T21:10:29.527Z,2.30
2017-06-26T21:12:56.196Z,2.10
2017-06-26T21:15:22.843Z,2.40
2017-06-26T21:17:49.472Z,2.50
2017-06-26T21:20:16.999Z,3.03
2017-06-26T21:22:43.629Z,2.07
2017-06-26T21:25:10.270Z,1.83
2017-06-26T21:27:36.887Z,1.50
2017-06-26T21:30:03.535Z,2.03
2017-06-26T21:32:30.191Z,1.93
2017-06-26T21:34:56.818Z,2.10
2017-06-26T21:37:23.432Z,1.50
2017-06-26T21:39:50.080Z,2.50
2017-06-26T21:42:16.718Z,1.70
2017-06-26T21:44:43.350Z,1.87
2017-06-26T21:47:09.969Z,1.20
2017-06-26T21:49:36.631Z,2.20
2017-06-26T21:52:03.283Z,1.40
2017-06-26T21:54:29.915Z,1.63
2017-06-26T21:56:56.539Z,1.87
2017-06-26T21:59:23.172Z,2.63
2017-06-26T22:01:49.789Z,1.73
2017-06-26T22:04:16.440Z,2.03
2017-06-26T22:06:43.057Z,1.57
2017-06-26T22:09:09.719Z,1.90
2017-06-26T22:11:36.342Z,1.50
2017-06-26T22:14:02.971Z,2.23
2017-06-26T22:16:29.612Z,2.07
2017-06-26T22:18:56.246Z,1.53
2017-06-26T22:21:22.895Z,1.60
2017-06-26T22:23:49.520Z,2.30
2017-06-26T22:26:16.144Z,1.87
2017-06-26T22:28:42.785Z,2.17
2017-06-26T22:31:10.259Z,1.47
2017-06-26T22:33:36.903Z,2.50
2017-06-26T22:36:03.551Z,1.73
2017-06-26T22:38:30.194Z,1.77
2017-06-26T22:40:56.847Z,1.97
2017-06-26T22:43:23.484Z,1.50
2017-06-26T22:45:50.123Z,1.83
2017-06-26T22:48:16.746Z,2.03
2017-06-26T22:50:43.392Z,1.77
2017-06-26T22:53:10.046Z,2.10
2017-06-26T22:55:36.690Z,1.83
2017-06-26T22:58:03.349Z,3.40
2017-06-26T23:00:29.976Z,1.80
2017-06-26T23:02:56.580Z,2.40
2017-06-26T23:05:23.203Z,2.53
2017-06-26T23:07:49.842Z,2.07
2017-06-26T23:10:18.591Z,2.60
2017-06-26T23:12:45.239Z,1.90
2017-06-26T23:15:11.904Z,1.90
2017-06-26T23:17:38.530Z,3.00
2017-06-26T23:20:05.160Z,2.23
2017-06-26T23:22:31.797Z,1.70
2017-06-26T23:24:58.415Z,1.27
2017-06-26T23:27:25.679Z,1.83
2017-06-26T23:29:52.311Z,2.00
2017-06-26T23:32:18.945Z,2.00
2017-06-26T23:34:45.581Z,2.93
2017-06-26T23:37:12.217Z,2.43
2017-06-26T23:39:38.888Z,1.63
2017-06-26T23:42:06.131Z,1.53
2017-06-26T23:44:32.802Z,2.13
2017-06-26T23:46:59.429Z,2.33
2017-06-26T23:49:26.035Z,2.27
2017-06-26T23:51:52.671Z,1.87
2017-06-26T23:54:19.307Z,1.97
2017-06-26T23:56:45.934Z,1.60
2017-06-26T23:59:12.582Z,2.50
